Time;durP1;ratioP1;P1;durP2;ratioP2;P2;SDS_P1;SDS_P2;PMS_P1;PMS_P2;Temp;Humidity;BMP_temperature;BMP_pressure;BME280_temperature;BME280_humidity;BME280_pressure;Samples;Min_cycle;Max_cycle;Signal;HPM_P1;HPM_P2
2022/12/19 00:01:58;;;;;;;42.73;28.10;;;1.10;99.90;;;;;;5055335;28;20162;-69
2022/12/19 00:04:23;;;;;;;43.43;29.43;;;1.10;99.90;;;;;;5055324;28;20562;-69
2022/12/19 00:06:49;;;;;;;47.33;29.13;;;1.20;99.90;;;;;;5055339;28;20401;-69
2022/12/19 00:09:15;;;;;;;42.60;26.43;;;1.30;99.90;;;;;;5055329;28;20175;-69
2022/12/19 00:11:40;;;;;;;46.20;31.63;;;1.40;99.90;;;;;;5055722;28;20256;-69
2022/12/19 00:14:08;;;;;;;41.60;28.70;;;1.60;99.90;;;;;;5055099;28;20218;-68
2022/12/19 00:16:33;;;;;;;43.70;27.93;;;1.50;99.90;;;;;;5054787;28;20526;-69
2022/12/19 00:19:00;;;;;;;50.37;32.40;;;1.50;99.90;;;;;;5055831;28;20455;-68
2022/12/19 00:21:28;;;;;;;47.30;30.50;;;1.40;99.90;;;;;;5055269;28;20213;-67
2022/12/19 00:23:54;;;;;;;48.27;31.10;;;1.40;99.90;;;;;;5055202;28;20927;-69
2022/12/19 00:26:21;;;;;;;45.17;31.70;;;1.40;99.90;;;;;;5054959;28;20793;-69
2022/12/19 00:28:50;;;;;;;49.53;32.27;;;1.40;99.90;;;;;;5055001;28;20440;-69
2022/12/19 00:31:17;;;;;;;46.17;31.30;;;1.20;99.90;;;;;;5054462;28;20410;-68
2022/12/19 00:33:44;;;;;;;51.17;30.33;;;1.20;99.90;;;;;;5053289;28;20514;-68
2022/12/19 00:36:21;;;;;;;45.53;31.57;;;1.20;99.90;;;;;;5054689;28;20825;-69
2022/12/19 00:38:47;;;;;;;49.30;32.60;;;1.10;99.90;;;;;;5053213;28;20523;-70
2022/12/19 00:41:16;;;;;;;47.63;32.33;;;1.00;99.90;;;;;;5054555;28;20416;-69
2022/12/19 00:43:43;;;;;;;35.20;26.83;;;0.90;99.90;;;;;;5054688;28;20437;-69
2022/12/19 00:46:10;;;;;;;45.27;29.47;;;1.00;99.90;;;;;;5053068;28;20421;-69
2022/12/19 00:48:36;;;;;;;47.43;29.63;;;1.10;99.90;;;;;;5053887;28;20835;-69
2022/12/19 00:51:05;;;;;;;45.90;30.40;;;0.90;99.90;;;;;;5054789;28;20501;-69
2022/12/19 00:53:30;;;;;;;38.60;27.73;;;1.00;99.90;;;;;;5054157;28;20212;-68
2022/12/19 00:55:59;;;;;;;51.23;32.63;;;1.10;99.90;;;;;;5053923;28;20444;-69
2022/12/19 00:58:26;;;;;;;46.33;29.70;;;1.00;99.90;;;;;;5054531;28;20253;-68
2022/12/19 01:00:51;;;;;;;46.33;28.77;;;1.00;99.90;;;;;;5053709;28;20427;-69
2022/12/19 01:03:17;;;;;;;43.03;29.97;;;0.90;99.90;;;;;;5067461;28;20789;-69
2022/12/19 01:05:42;;;;;;;48.13;29.77;;;0.90;99.90;;;;;;5054587;28;20260;-69
2022/12/19 01:08:08;;;;;;;45.70;29.87;;;1.00;99.90;;;;;;5054454;28;20250;-68
2022/12/19 01:10:33;;;;;;;49.20;31.63;;;1.00;99.90;;;;;;5054737;28;20176;-69
2022/12/19 01:12:59;;;;;;;42.73;29.97;;;1.20;99.90;;;;;;5053916;28;20191;-67
2022/12/19 01:15:24;;;;;;;45.33;29.20;;;1.30;99.90;;;;;;5053531;28;20194;-69
2022/12/19 01:17:50;;;;;;;42.60;27.97;;;1.30;99.90;;;;;;5054289;28;20166;-68
2022/12/19 01:20:18;;;;;;;44.30;29.90;;;1.40;99.90;;;;;;5053910;28;20174;-69
2022/12/19 01:22:44;;;;;;;40.80;29.13;;;1.60;99.90;;;;;;5053887;28;20559;-69
2022/12/19 01:25:11;;;;;;;45.70;29.67;;;1.70;99.90;;;;;;5053704;28;20405;-68
2022/12/19 01:27:36;;;;;;;48.53;30.40;;;1.70;99.90;;;;;;5052651;28;20202;-68
2022/12/19 01:30:04;;;;;;;44.80;30.90;;;1.70;99.90;;;;;;5053082;28;20461;-68
2022/12/19 01:32:29;;;;;;;45.40;29.03;;;1.70;99.90;;;;;;5052027;28;20166;-68
2022/12/19 01:34:56;;;;;;;42.63;29.60;;;1.50;99.90;;;;;;5052429;28;21061;-68
2022/12/19 01:37:22;;;;;;;44.97;30.77;;;1.50;99.90;;;;;;5053586;28;20480;-68
2022/12/19 01:39:47;;;;;;;43.83;30.10;;;1.50;99.90;;;;;;5053511;28;20170;-68
2022/12/19 01:42:17;;;;;;;42.73;29.30;;;1.40;99.90;;;;;;5053628;28;20206;-67
2022/12/19 01:45:21;;;;;;;41.10;28.13;;;1.50;99.90;;;;;;5051946;28;20621;-68
2022/12/19 01:47:51;;;;;;;44.50;30.83;;;1.50;99.90;;;;;;5053465;28;20830;-68
2022/12/19 01:50:22;;;;;;;40.33;28.17;;;1.50;99.90;;;;;;5053226;28;20407;-68
2022/12/19 01:52:48;;;;;;;43.47;28.83;;;1.40;99.90;;;;;;5053481;28;20428;-68
2022/12/19 01:55:14;;;;;;;47.00;29.90;;;1.60;99.90;;;;;;5051759;28;20449;-68
2022/12/19 01:57:40;;;;;;;40.13;27.17;;;1.70;99.90;;;;;;5053409;28;20177;-68
2022/12/19 02:00:09;;;;;;;43.43;28.87;;;1.60;99.90;;;;;;5052703;28;20517;-67
2022/12/19 02:02:47;;;;;;;48.20;32.93;;;1.70;99.90;;;;;;5053254;28;20413;-68
2022/12/19 02:05:13;;;;;;;41.57;29.00;;;1.80;99.90;;;;;;5053427;28;20389;-68
2022/12/19 02:07:40;;;;;;;48.80;31.03;;;1.80;99.90;;;;;;5052359;28;20415;-68
2022/12/19 02:10:06;;;;;;;40.67;27.20;;;1.80;99.90;;;;;;5052977;28;20175;-68
2022/12/19 02:12:36;;;;;;;41.17;28.17;;;2.00;99.90;;;;;;5052906;28;20419;-68
2022/12/19 02:15:04;;;;;;;45.60;30.37;;;2.10;99.90;;;;;;5052267;28;20452;-68
2022/12/19 02:17:46;;;;;;;46.30;30.27;;;2.00;99.90;;;;;;5052802;28;20405;-68
2022/12/19 02:20:30;;;;;;;37.67;26.60;;;2.10;99.90;;;;;;5052899;28;20760;-68
2022/12/19 02:23:40;;;;;;;41.47;27.77;;;2.20;99.90;;;;;;5053177;28;20416;-68
2022/12/19 02:26:12;;;;;;;44.00;28.57;;;2.30;99.90;;;;;;5052607;28;20416;-68
2022/12/19 02:28:56;;;;;;;40.27;27.97;;;2.20;99.90;;;;;;5052778;28;20432;-68
2022/12/19 02:31:35;;;;;;;39.33;27.70;;;2.20;99.90;;;;;;5052378;28;20396;-67
2022/12/19 02:34:29;;;;;;;38.13;26.10;;;2.40;99.90;;;;;;5052627;28;20452;-67
2022/12/19 02:37:01;;;;;;;39.17;25.67;;;2.30;99.90;;;;;;5053170;28;20441;-68
2022/12/19 02:39:43;;;;;;;40.53;28.73;;;2.40;99.90;;;;;;5052555;28;20405;-68
2022/12/19 02:42:11;;;;;;;41.17;26.37;;;2.30;99.90;;;;;;5052849;28;20386;-68
2022/12/19 02:44:51;;;;;;;46.87;29.97;;;2.40;99.90;;;;;;5051957;28;20445;-68
2022/12/19 02:47:20;;;;;;;40.87;27.40;;;2.50;99.90;;;;;;5052791;28;20400;-68
2022/12/19 02:49:46;;;;;;;39.00;27.03;;;2.60;99.90;;;;;;5053838;28;20406;-67
2022/12/19 02:52:31;;;;;;;42.23;29.40;;;2.70;99.90;;;;;;5054454;28;20790;-68
2022/12/19 02:55:04;;;;;;;44.03;29.47;;;2.10;99.90;;;;;;5052321;28;20832;-68
2022/12/19 02:57:45;;;;;;;46.47;30.13;;;2.20;99.90;;;;;;5052519;28;20546;-68
2022/12/19 03:00:11;;;;;;;41.30;27.40;;;2.00;99.90;;;;;;5052173;28;20393;-68
2022/12/19 03:03:03;;;;;;;48.77;31.40;;;2.10;99.90;;;;;;5052745;28;20408;-68
2022/12/19 03:05:38;;;;;;;48.50;30.90;;;2.10;99.90;;;;;;5051203;28;20409;-68
2022/12/19 03:08:07;;;;;;;48.80;30.60;;;2.20;99.90;;;;;;5052795;28;20474;-67
2022/12/19 03:10:44;;;;;;;43.00;30.30;;;2.30;99.90;;;;;;5051245;28;20817;-67
2022/12/19 03:13:35;;;;;;;40.00;29.27;;;2.50;99.90;;;;;;5052538;28;20439;-68
2022/12/19 03:16:03;;;;;;;41.37;29.87;;;2.60;99.90;;;;;;5047186;28;20851;-68
2022/12/19 03:18:32;;;;;;;40.13;28.30;;;2.80;99.90;;;;;;5054927;28;20414;-68
2022/12/19 03:21:22;;;;;;;43.47;30.00;;;2.50;99.90;;;;;;5056395;28;20401;-68
2022/12/19 03:23:49;;;;;;;41.33;29.03;;;2.30;99.90;;;;;;5056026;28;20486;-66
2022/12/19 03:26:20;;;;;;;46.10;30.77;;;2.60;99.90;;;;;;5055993;28;20409;-68
2022/12/19 03:28:50;;;;;;;46.70;31.47;;;2.70;99.90;;;;;;5056276;28;20767;-68
2022/12/19 03:31:20;;;;;;;40.93;29.10;;;2.70;99.90;;;;;;5055108;28;20413;-69
2022/12/19 03:33:48;;;;;;;40.17;29.00;;;2.70;99.90;;;;;;5055608;28;20456;-68
2022/12/19 03:36:19;;;;;;;41.30;27.30;;;2.90;99.90;;;;;;5055763;28;20817;-67
2022/12/19 03:38:47;;;;;;;41.20;29.90;;;3.00;99.90;;;;;;5094908;22;20568;-67
2022/12/19 03:41:14;;;;;;;38.30;27.93;;;3.00;99.90;;;;;;5074917;28;20987;-67
2022/12/19 03:43:42;;;;;;;43.90;30.00;;;3.10;99.90;;;;;;5072622;28;20412;-67
2022/12/19 03:46:24;;;;;;;48.30;30.60;;;3.10;99.90;;;;;;5073648;28;20734;-68
2022/12/19 03:48:52;;;;;;;39.80;27.50;;;3.20;99.90;;;;;;5063697;28;20432;-67
2022/12/19 03:51:36;;;;;;;45.47;30.80;;;3.20;99.90;;;;;;5052935;28;20489;-68
2022/12/19 03:54:07;;;;;;;42.00;28.00;;;3.10;99.90;;;;;;5052916;28;20915;-67
2022/12/19 03:57:05;;;;;;;40.70;28.83;;;3.10;99.90;;;;;;5053308;28;20449;-67
2022/12/19 03:59:34;;;;;;;40.77;27.80;;;3.20;99.90;;;;;;5054153;28;20436;-67
2022/12/19 04:02:02;;;;;;;39.63;28.30;;;3.20;99.90;;;;;;5054429;28;20867;-67
2022/12/19 04:04:30;;;;;;;38.93;27.17;;;3.30;99.90;;;;;;5054067;28;20409;-68
2022/12/19 04:06:57;;;;;;;38.13;27.50;;;3.40;99.90;;;;;;5052717;28;20910;-68
2022/12/19 04:09:23;;;;;;;39.40;28.47;;;3.40;99.90;;;;;;5053834;28;20417;-68
2022/12/19 04:11:57;;;;;;;39.50;28.33;;;3.50;99.90;;;;;;5054606;28;20401;-68
2022/12/19 04:14:28;;;;;;;35.37;26.43;;;3.50;99.90;;;;;;5053991;28;20401;-67
2022/12/19 04:17:03;;;;;;;37.23;27.33;;;3.60;99.90;;;;;;5053796;28;20527;-68
2022/12/19 04:19:49;;;;;;;39.40;28.50;;;3.60;99.90;;;;;;5053740;28;20526;-68
2022/12/19 04:22:39;;;;;;;38.90;27.20;;;3.60;99.90;;;;;;5052587;28;20405;-68
2022/12/19 04:25:09;;;;;;;38.67;25.53;;;3.60;99.90;;;;;;5054199;28;20409;-67
2022/12/19 04:27:38;;;;;;;43.90;29.13;;;3.50;99.90;;;;;;5053506;28;20413;-67
2022/12/19 04:30:05;;;;;;;38.60;27.00;;;3.40;99.90;;;;;;5038145;28;20414;-68
2022/12/19 04:32:34;;;;;;;35.73;26.13;;;3.40;99.90;;;;;;5033731;28;20414;-68
2022/12/19 04:35:00;;;;;;;36.70;25.27;;;3.50;99.90;;;;;;5033779;28;20488;-68
2022/12/19 04:37:25;;;;;;;36.20;25.30;;;3.40;99.90;;;;;;5033793;28;20406;-68
2022/12/19 04:39:51;;;;;;;42.33;28.43;;;3.40;99.90;;;;;;5033399;28;20206;-68
2022/12/19 04:42:17;;;;;;;41.77;27.97;;;3.10;99.90;;;;;;5032267;28;20266;-68
2022/12/19 04:44:43;;;;;;;38.93;26.53;;;2.90;99.90;;;;;;5033320;28;20485;-67
2022/12/19 04:47:08;;;;;;;39.53;27.73;;;3.10;99.90;;;;;;5049695;28;20531;-67
2022/12/19 04:49:34;;;;;;;40.67;27.60;;;3.30;99.90;;;;;;5053445;28;20669;-67
2022/12/19 04:51:59;;;;;;;47.00;30.73;;;3.40;99.90;;;;;;5053391;28;20159;-67
2022/12/19 04:54:25;;;;;;;43.10;28.83;;;3.40;99.90;;;;;;5053215;28;20167;-67
2022/12/19 04:56:52;;;;;;;41.43;27.57;;;3.40;99.90;;;;;;5053007;28;20598;-67
2022/12/19 04:59:18;;;;;;;37.83;26.07;;;3.40;99.90;;;;;;5052734;28;20533;-67
2022/12/19 05:01:43;;;;;;;43.43;28.73;;;3.60;99.90;;;;;;5052585;28;20409;-68
2022/12/19 05:04:09;;;;;;;33.97;24.97;;;3.60;99.90;;;;;;5053488;28;20285;-68
2022/12/19 05:06:34;;;;;;;39.60;27.73;;;3.50;99.90;;;;;;5053162;28;20539;-68
2022/12/19 05:09:00;;;;;;;41.40;26.20;;;3.70;99.90;;;;;;5051752;28;20199;-68
2022/12/19 05:11:26;;;;;;;41.10;27.77;;;3.50;99.90;;;;;;5052853;28;20218;-68
2022/12/19 05:13:51;;;;;;;38.60;27.50;;;3.40;99.90;;;;;;5053003;28;20178;-68
2022/12/19 05:16:17;;;;;;;41.10;28.50;;;3.60;99.90;;;;;;5052406;28;20226;-68
2022/12/19 05:18:43;;;;;;;38.33;26.27;;;3.80;99.90;;;;;;5052837;28;20193;-67
2022/12/19 05:21:09;;;;;;;35.43;25.20;;;3.90;99.90;;;;;;5052790;28;20198;-68
2022/12/19 05:23:35;;;;;;;33.70;24.90;;;3.90;99.90;;;;;;5052546;28;20674;-67
2022/12/19 05:26:03;;;;;;;35.70;25.17;;;4.00;99.90;;;;;;5053091;28;20401;-68
2022/12/19 05:28:30;;;;;;;38.47;25.17;;;4.10;99.90;;;;;;5052509;28;20190;-68
2022/12/19 05:31:11;;;;;;;40.73;27.07;;;4.10;99.90;;;;;;5050704;28;20844;-68
2022/12/19 05:33:37;;;;;;;31.07;23.50;;;4.10;99.90;;;;;;5052844;28;20401;-68
2022/12/19 05:36:04;;;;;;;34.33;25.90;;;4.10;99.90;;;;;;5052305;28;20449;-69
2022/12/19 05:38:29;;;;;;;29.40;23.50;;;4.10;99.90;;;;;;5052321;28;20448;-68
2022/12/19 05:40:58;;;;;;;33.60;23.30;;;4.20;99.90;;;;;;5051988;28;20401;-69
2022/12/19 05:43:24;;;;;;;34.50;24.30;;;4.20;99.90;;;;;;5052897;28;20163;-69
2022/12/19 05:45:49;;;;;;;33.73;23.23;;;4.20;99.90;;;;;;5051506;28;20427;-68
2022/12/19 05:48:15;;;;;;;33.20;23.10;;;4.10;99.90;;;;;;5052496;28;20193;-68
2022/12/19 05:50:45;;;;;;;29.30;23.43;;;4.10;99.90;;;;;;5052336;28;20171;-68
2022/12/19 05:53:11;;;;;;;37.97;25.53;;;4.10;99.90;;;;;;5052566;28;20424;-68
2022/12/19 05:55:36;;;;;;;30.77;22.40;;;4.20;99.90;;;;;;5052627;28;20452;-68
2022/12/19 05:58:02;;;;;;;32.90;22.20;;;4.20;99.90;;;;;;5051056;28;20264;-68
2022/12/19 06:00:27;;;;;;;37.93;24.30;;;4.20;99.90;;;;;;5052136;28;20162;-68
2022/12/19 06:02:53;;;;;;;29.60;21.53;;;4.20;99.90;;;;;;5052296;28;20167;-69
2022/12/19 06:05:19;;;;;;;40.03;24.70;;;4.20;99.90;;;;;;5052267;28;20306;-68
2022/12/19 06:07:45;;;;;;;31.53;21.53;;;4.20;99.90;;;;;;5052108;28;20171;-68
2022/12/19 06:10:10;;;;;;;34.53;23.50;;;4.20;99.90;;;;;;5052284;28;20273;-68
2022/12/19 06:12:36;;;;;;;35.63;23.23;;;4.30;99.90;;;;;;5052374;28;20429;-68
2022/12/19 06:15:02;;;;;;;37.00;23.50;;;4.20;99.90;;;;;;5051759;28;20684;-68
2022/12/19 06:17:28;;;;;;;34.97;23.57;;;4.30;99.90;;;;;;5051575;28;20166;-68
2022/12/19 06:19:53;;;;;;;32.50;21.67;;;4.20;99.90;;;;;;5047832;28;20744;-68
2022/12/19 06:22:19;;;;;;;32.47;23.10;;;4.00;99.90;;;;;;5032307;28;20167;-69
2022/12/19 06:24:44;;;;;;;28.87;21.77;;;4.20;99.90;;;;;;5032087;28;20217;-68
2022/12/19 06:27:10;;;;;;;33.20;25.60;;;4.30;99.90;;;;;;5032487;28;20172;-68
2022/12/19 06:29:35;;;;;;;36.30;23.37;;;4.20;99.90;;;;;;5032457;28;20194;-68
2022/12/19 06:32:01;;;;;;;31.27;22.23;;;4.30;99.90;;;;;;5031854;28;20175;-68
2022/12/19 06:34:26;;;;;;;30.00;21.93;;;4.30;99.90;;;;;;5032053;28;20167;-68
2022/12/19 06:36:52;;;;;;;33.47;23.40;;;4.40;99.90;;;;;;5031950;28;20203;-68
2022/12/19 06:39:17;;;;;;;39.13;28.43;;;4.40;99.90;;;;;;5031737;28;20285;-69
2022/12/19 06:44:27;;;;;;;36.27;25.47;;;4.40;99.90;;;;;;5032512;28;20231;-69
2022/12/19 06:46:53;;;;;;;35.83;25.10;;;4.20;99.90;;;;;;5046882;28;20908;-68
2022/12/19 06:49:19;;;;;;;34.10;22.63;;;4.30;99.90;;;;;;5051711;28;20183;-69
2022/12/19 06:51:45;;;;;;;38.67;27.83;;;4.30;99.90;;;;;;5051648;28;20221;-69
2022/12/19 06:54:11;;;;;;;37.90;27.77;;;4.30;99.90;;;;;;5054927;28;20190;-69
2022/12/19 06:56:39;;;;;;;38.77;25.97;;;4.10;99.90;;;;;;5055416;28;20198;-69
2022/12/19 06:59:05;;;;;;;33.90;24.23;;;4.10;99.90;;;;;;5055419;28;20498;-69
2022/12/19 07:01:56;;;;;;;34.87;24.20;;;4.30;99.90;;;;;;5049793;28;20432;-69
2022/12/19 07:04:38;;;;;;;38.00;25.80;;;4.30;99.90;;;;;;5055701;28;20386;-69
2022/12/19 07:07:04;;;;;;;32.97;23.87;;;4.10;99.90;;;;;;5055986;28;20790;-68
2022/12/19 07:09:32;;;;;;;33.93;22.60;;;4.10;99.90;;;;;;5055601;28;20421;-69
2022/12/19 07:11:58;;;;;;;28.00;20.10;;;4.20;99.90;;;;;;5055231;28;20428;-69
2022/12/19 07:14:24;;;;;;;29.93;20.47;;;4.30;99.90;;;;;;5055400;28;20416;-68
2022/12/19 07:16:51;;;;;;;31.00;21.67;;;4.30;99.90;;;;;;5054469;28;20558;-68
2022/12/19 07:19:17;;;;;;;36.80;25.10;;;4.30;99.90;;;;;;5053638;28;20580;-69
2022/12/19 07:21:43;;;;;;;37.07;24.80;;;4.50;99.90;;;;;;5053832;28;20409;-69
2022/12/19 07:24:10;;;;;;;35.43;22.30;;;4.40;99.90;;;;;;5055194;28;20900;-69
2022/12/19 07:26:36;;;;;;;34.30;23.00;;;4.50;99.90;;;;;;5054933;28;20424;-69
2022/12/19 07:29:02;;;;;;;36.73;23.87;;;4.40;99.90;;;;;;5054724;28;20429;-69
2022/12/19 07:31:28;;;;;;;30.40;22.20;;;4.50;99.90;;;;;;5054683;28;20178;-69
2022/12/19 07:33:53;;;;;;;30.53;23.27;;;4.60;99.90;;;;;;5054869;28;20416;-69
2022/12/19 07:36:19;;;;;;;33.37;21.43;;;4.60;99.90;;;;;;5054828;28;20195;-70
2022/12/19 07:38:44;;;;;;;32.77;23.30;;;4.70;99.90;;;;;;5054646;28;20775;-69
2022/12/19 07:41:10;;;;;;;31.40;21.30;;;4.60;99.90;;;;;;5054568;28;20163;-70
2022/12/19 07:43:36;;;;;;;35.10;22.20;;;4.70;99.90;;;;;;5054461;28;20489;-69
2022/12/19 07:46:01;;;;;;;35.33;22.80;;;4.80;99.90;;;;;;5053327;28;20249;-69
2022/12/19 07:48:29;;;;;;;27.03;20.23;;;4.80;99.90;;;;;;5054213;28;20186;-70
2022/12/19 07:50:54;;;;;;;28.80;21.87;;;4.90;99.90;;;;;;5054488;28;20239;-69
2022/12/19 07:53:20;;;;;;;32.00;22.57;;;5.00;99.90;;;;;;5054400;28;20978;-68
2022/12/19 07:55:49;;;;;;;30.27;21.23;;;4.90;99.90;;;;;;5054212;28;20761;-68
2022/12/19 07:58:15;;;;;;;33.93;23.23;;;4.90;99.90;;;;;;5054137;28;20183;-69
2022/12/19 08:00:41;;;;;;;28.80;21.27;;;5.00;99.90;;;;;;5054134;28;20492;-69
2022/12/19 08:03:06;;;;;;;31.17;22.10;;;5.00;99.90;;;;;;5055814;28;20159;-70
2022/12/19 08:05:33;;;;;;;29.33;19.70;;;5.00;99.90;;;;;;5053508;28;20264;-69
2022/12/19 08:07:58;;;;;;;27.77;19.87;;;5.00;99.90;;;;;;5054113;28;20558;-68
2022/12/19 08:10:24;;;;;;;28.63;19.77;;;5.00;99.90;;;;;;5052874;28;20417;-69
2022/12/19 08:12:50;;;;;;;26.03;19.87;;;5.10;99.90;;;;;;5056195;28;20170;-70
2022/12/19 08:15:15;;;;;;;28.57;19.40;;;5.30;99.90;;;;;;5054600;28;20191;-70
2022/12/19 08:17:41;;;;;;;28.67;20.20;;;5.20;99.90;;;;;;5053443;28;20627;-69
2022/12/19 08:20:08;;;;;;;28.50;19.93;;;5.30;99.90;;;;;;5052341;28;20166;-69
2022/12/19 08:22:33;;;;;;;26.60;19.53;;;5.30;99.90;;;;;;5049932;28;20243;-69
2022/12/19 08:24:59;;;;;;;30.00;19.60;;;5.30;99.90;;;;;;5033926;28;20418;-69
2022/12/19 08:27:25;;;;;;;29.23;20.53;;;5.40;99.90;;;;;;5033525;28;20658;-69
2022/12/19 08:29:51;;;;;;;22.43;17.20;;;5.30;99.90;;;;;;5033578;28;20325;-69
2022/12/19 08:32:17;;;;;;;25.37;18.57;;;5.40;99.90;;;;;;5033199;28;20452;-70
2022/12/19 08:34:43;;;;;;;24.70;18.40;;;5.50;99.90;;;;;;5032566;28;20171;-68
2022/12/19 08:37:09;;;;;;;27.73;19.07;;;5.50;99.90;;;;;;5033759;28;20410;-69
2022/12/19 08:39:35;;;;;;;21.60;17.10;;;5.60;99.90;;;;;;5033447;28;20451;-69
2022/12/19 08:42:01;;;;;;;24.47;17.27;;;5.60;99.90;;;;;;5033858;28;20457;-69
2022/12/19 08:44:26;;;;;;;26.83;18.30;;;5.50;99.90;;;;;;5033677;28;20199;-69
2022/12/19 08:46:52;;;;;;;24.83;17.57;;;5.50;99.90;;;;;;5045137;28;20190;-69
2022/12/19 08:49:18;;;;;;;31.63;18.73;;;5.60;99.90;;;;;;5053555;28;20191;-69
2022/12/19 08:51:44;;;;;;;25.90;19.20;;;5.60;99.90;;;;;;5053333;28;20253;-69
2022/12/19 08:54:11;;;;;;;21.30;16.57;;;5.40;99.90;;;;;;5051829;28;20783;-69
2022/12/19 08:56:36;;;;;;;24.80;17.73;;;5.50;99.90;;;;;;5052964;28;20514;-69
2022/12/19 08:59:02;;;;;;;27.93;20.60;;;5.50;99.90;;;;;;5053255;28;20829;-69
2022/12/19 09:01:28;;;;;;;22.70;17.83;;;5.70;99.90;;;;;;5052756;28;20421;-68
2022/12/19 09:03:57;;;;;;;23.10;16.30;;;5.70;99.90;;;;;;5052929;28;20585;-69
2022/12/19 09:06:23;;;;;;;23.73;17.73;;;5.60;99.90;;;;;;5052962;28;20209;-69
2022/12/19 09:08:48;;;;;;;24.27;16.40;;;5.80;99.90;;;;;;5053120;28;20433;-70
2022/12/19 09:11:16;;;;;;;22.83;16.00;;;5.90;99.90;;;;;;5053317;28;20171;-69
2022/12/19 09:13:43;;;;;;;21.00;16.20;;;6.00;99.90;;;;;;5051704;28;20617;-69
2022/12/19 09:16:21;;;;;;;25.47;17.90;;;6.00;99.90;;;;;;5052321;28;20501;-70
2022/12/19 09:18:49;;;;;;;22.00;17.00;;;6.10;99.90;;;;;;5053094;28;20950;-70
2022/12/19 09:21:15;;;;;;;25.87;16.30;;;6.20;99.90;;;;;;5052774;28;20410;-69
2022/12/19 09:23:42;;;;;;;22.57;16.97;;;6.30;99.90;;;;;;5051961;28;20421;-70
2022/12/19 09:26:10;;;;;;;25.70;18.13;;;6.30;99.90;;;;;;5052696;28;20405;-70
2022/12/19 09:28:37;;;;;;;22.53;15.87;;;6.40;99.90;;;;;;5052568;28;20437;-69
2022/12/19 09:31:06;;;;;;;25.20;18.77;;;6.40;99.90;;;;;;5052210;28;20508;-70
2022/12/19 09:33:34;;;;;;;22.43;15.93;;;6.30;99.90;;;;;;5052102;28;20410;-69
2022/12/19 09:36:01;;;;;;;24.43;17.10;;;6.50;99.90;;;;;;5032984;28;20549;-70
2022/12/19 09:38:28;;;;;;;21.17;15.90;;;6.60;99.90;;;;;;5060347;22;20486;-68
2022/12/19 09:40:56;;;;;;;22.73;17.50;;;6.70;99.90;;;;;;5053868;28;20404;-68
2022/12/19 09:43:39;;;;;;;21.87;16.20;;;6.70;99.90;;;;;;5053871;28;20402;-68
2022/12/19 09:46:16;;;;;;;22.67;16.33;;;6.90;99.90;;;;;;5052400;28;20409;-69
2022/12/19 09:48:44;;;;;;;23.27;16.37;;;6.80;99.90;;;;;;5053979;28;20415;-69
2022/12/19 09:51:21;;;;;;;23.30;16.90;;;7.00;99.90;;;;;;5053857;28;20501;-69
2022/12/19 09:54:10;;;;;;;23.70;15.80;;;7.00;99.90;;;;;;5053493;28;20372;-67
2022/12/19 09:56:39;;;;;;;19.63;15.00;;;7.10;99.90;;;;;;5053574;28;20503;-67
2022/12/19 09:59:13;;;;;;;17.27;14.13;;;7.30;99.90;;;;;;5052123;28;20447;-69
2022/12/19 10:02:22;;;;;;;15.63;13.73;;;7.50;99.90;;;;;;5053242;28;20754;-69
2022/12/19 10:05:05;;;;;;;19.70;16.47;;;7.50;99.90;;;;;;5037051;28;20462;-68
2022/12/19 10:07:30;;;;;;;25.80;17.60;;;7.40;99.90;;;;;;5053239;28;20427;-68
2022/12/19 10:09:56;;;;;;;25.67;18.67;;;7.70;99.90;;;;;;5053171;28;20455;-69
2022/12/19 10:12:30;;;;;;;19.23;15.97;;;7.90;99.90;;;;;;5052916;28;20634;-69
2022/12/19 10:15:14;;;;;;;27.27;16.17;;;7.90;99.90;;;;;;5052932;28;20168;-68
2022/12/19 10:18:05;;;;;;;21.33;15.73;;;8.40;99.90;;;;;;5036721;28;20444;-68
2022/12/19 10:20:40;;;;;;;22.67;17.37;;;8.70;99.90;;;;;;5038117;28;20420;-68
2022/12/19 10:23:14;;;;;;;20.77;15.27;;;8.80;99.90;;;;;;5042215;28;20496;-68
2022/12/19 10:25:53;;;;;;;24.60;17.87;;;8.70;99.90;;;;;;5038521;28;20413;-67
2022/12/19 10:28:43;;;;;;;20.27;16.90;;;8.70;99.90;;;;;;5043148;28;20416;-68
2022/12/19 10:31:20;;;;;;;26.00;18.27;;;8.60;99.90;;;;;;5042056;28;20424;-69
2022/12/19 10:33:54;;;;;;;29.40;18.10;;;8.50;99.90;;;;;;5046717;28;20432;-69
2022/12/19 10:36:23;;;;;;;25.27;18.13;;;8.30;99.90;;;;;;5044859;28;20457;-69
2022/12/19 10:39:05;;;;;;;23.03;17.73;;;8.40;99.90;;;;;;5037572;28;20550;-70
2022/12/19 10:41:31;;;;;;;24.43;17.73;;;8.50;99.90;;;;;;5043816;28;20428;-70
2022/12/19 10:44:07;;;;;;;25.23;17.80;;;8.80;99.90;;;;;;5045202;28;20463;-70
2022/12/19 10:46:51;;;;;;;26.23;16.87;;;9.00;99.90;;;;;;5046591;28;20963;-69
2022/12/19 10:49:23;;;;;;;25.13;16.30;;;9.20;99.90;;;;;;5047944;28;20449;-69
2022/12/19 10:51:55;;;;;;;21.60;16.77;;;9.30;99.90;;;;;;5047377;28;20429;-67
2022/12/19 10:54:36;;;;;;;21.13;16.70;;;9.30;99.90;;;;;;5049692;28;20428;-69
2022/12/19 10:57:28;;;;;;;20.47;16.73;;;9.10;99.90;;;;;;5056390;28;20437;-67
2022/12/19 11:00:02;;;;;;;22.20;17.37;;;9.40;99.90;;;;;;5054478;28;20436;-69
2022/12/19 11:02:40;;;;;;;26.30;18.33;;;9.60;99.90;;;;;;5056368;28;20425;-69
2022/12/19 11:05:25;;;;;;;19.97;17.00;;;9.80;99.90;;;;;;5056607;28;20388;-69
2022/12/19 11:08:06;;;;;;;20.00;15.70;;;10.10;99.90;;;;;;5056526;28;20870;-70
2022/12/19 11:10:44;;;;;;;20.60;16.43;;;10.10;99.90;;;;;;5056576;28;20413;-69
2022/12/19 11:13:23;;;;;;;24.60;17.23;;;10.30;99.90;;;;;;5056383;28;20404;-70
2022/12/19 11:15:54;;;;;;;20.17;15.67;;;10.60;99.90;;;;;;5052482;28;20942;-69
2022/12/19 11:18:20;;;;;;;18.90;15.43;;;10.60;99.90;;;;;;5056343;28;20445;-69
2022/12/19 11:21:01;;;;;;;19.90;14.83;;;10.70;99.90;;;;;;5056969;28;20406;-71
2022/12/19 11:23:28;;;;;;;17.17;14.63;;;10.90;99.90;;;;;;5057362;28;20424;-71
2022/12/19 11:26:03;;;;;;;20.53;15.03;;;11.00;99.90;;;;;;5057185;28;20844;-71
2022/12/19 11:28:34;;;;;;;20.40;15.73;;;10.80;99.90;;;;;;5056945;28;20416;-71
2022/12/19 11:31:10;;;;;;;23.70;17.93;;;10.70;99.90;;;;;;5056796;28;20389;-68
2022/12/19 11:33:36;;;;;;;19.20;15.60;;;10.80;99.90;;;;;;5062604;28;20397;-73
2022/12/19 11:36:03;;;;;;;20.90;17.43;;;11.10;99.90;;;;;;5060842;28;20445;-70
2022/12/19 11:38:44;;;;;;;20.37;16.03;;;11.20;99.90;;;;;;5058314;28;20437;-71
2022/12/19 11:41:26;;;;;;;20.40;15.97;;;11.40;99.90;;;;;;5052752;28;20428;-73
2022/12/19 11:44:00;;;;;;;17.87;15.70;;;11.70;99.90;;;;;;5059945;28;20411;-73
2022/12/19 11:46:44;;;;;;;18.50;16.47;;;11.80;99.90;;;;;;5060725;28;20409;-71
2022/12/19 11:49:24;;;;;;;19.53;16.37;;;11.70;99.90;;;;;;5040443;28;20749;-71
2022/12/19 11:52:01;;;;;;;20.10;16.10;;;11.20;99.90;;;;;;5040666;28;20391;-74
2022/12/19 11:54:50;;;;;;;20.20;15.53;;;10.90;99.90;;;;;;5042860;28;20915;-73
2022/12/19 11:57:15;;;;;;;25.90;19.37;;;10.90;99.90;;;;;;5044913;28;20477;-70
2022/12/19 11:59:41;;;;;;;23.10;19.47;;;11.00;99.90;;;;;;5035722;28;20923;-70
2022/12/19 12:02:40;;;;;;;23.00;16.93;;;11.20;99.90;;;;;;5036877;28;20164;-72
2022/12/19 12:05:42;;;;;;;26.90;19.10;;;11.50;99.90;;;;;;5037276;28;20167;-69
2022/12/19 12:08:30;;;;;;;22.00;15.60;;;12.40;99.90;;;;;;5036633;28;20424;-71
2022/12/19 12:11:17;;;;;;;17.93;14.93;;;12.60;99.90;;;;;;5041691;28;20426;-70
2022/12/19 12:14:08;;;;;;;22.57;17.87;;;12.40;99.90;;;;;;5046751;28;20499;-70
2022/12/19 12:17:06;;;;;;;21.47;16.50;;;12.30;99.90;;;;;;5048670;28;20451;-70
2022/12/19 12:19:53;;;;;;;18.97;15.60;;;12.20;99.90;;;;;;5053821;28;20429;-70
2022/12/19 12:22:43;;;;;;;16.27;14.37;;;12.10;99.90;;;;;;5041808;28;20443;-69
2022/12/19 12:25:23;;;;;;;19.40;16.50;;;11.70;99.90;;;;;;5042678;28;20421;-71
2022/12/19 12:28:11;;;;;;;18.63;15.47;;;11.40;99.90;;;;;;5041955;28;20408;-71
2022/12/19 12:30:46;;;;;;;15.87;13.67;;;11.00;99.90;;;;;;5055880;28;20401;-71
2022/12/19 12:33:33;;;;;;;13.90;12.47;;;10.70;99.90;;;;;;5060178;28;20394;-70
2022/12/19 12:36:03;;;;;;;15.00;13.40;;;10.40;99.90;;;;;;5056903;28;20472;-70
2022/12/19 12:38:38;;;;;;;19.73;15.10;;;10.10;99.90;;;;;;5059371;28;20499;-70
2022/12/19 12:41:17;;;;;;;18.40;15.43;;;9.70;99.90;;;;;;5058182;28;20427;-72
2022/12/19 12:44:07;;;;;;;17.57;15.10;;;9.30;99.90;;;;;;5052225;28;20420;-70
2022/12/19 12:46:39;;;;;;;16.97;12.27;;;9.20;99.90;;;;;;5038216;28;20984;-70
2022/12/19 12:49:33;;;;;;;15.20;13.37;;;9.10;99.90;;;;;;5051808;28;20443;-72
2022/12/19 12:52:00;;;;;;;14.47;11.97;;;9.10;99.90;;;;;;5043815;28;20425;-68
2022/12/19 12:54:33;;;;;;;14.10;12.57;;;9.10;99.90;;;;;;5046141;28;20445;-69
2022/12/19 12:57:00;;;;;;;14.20;12.70;;;9.10;99.90;;;;;;5042548;28;20445;-68
2022/12/19 12:59:29;;;;;;;16.33;13.60;;;9.20;99.90;;;;;;5056204;28;20513;-71